Margaret — WDC3267 — position and weather

sailwx.info

Track history (hours):
 
Tides and Currents Weather Stations Pressure Air Temp Water Temp Dewpoint Dewpoint Depression Visibility Wind Speed Wind Dir Waves Ship Positions

Margaret

Owner: Cooper Marine & Timberlands Corporation, Mobile, AL. More information available from US FCC via Universal Licensing System and Coast Guard Vessel Documentation Center.

Last reported at 2014-Dec-13 00:33 UTC. Time now 2014-Dec-21 12:50 UTC.
Position N 30°24' W 086°54'.
Warning: this ship's position is 8 days out of date.

Length 20 m; draft 9 m.

Type: Towing. MMSI: 367004940.

Date/timePositionNaut miles runAvg speedWind from/ knotsBaromVisibWave heightAir tempDewpointWater temp
2014-Dec-13 00:33N 30°24' W 086°54'6 5.5
2014-Dec-12 23:31N 30°24' W 086°47'11 5.5
2014-Dec-12 21:31N 30°24' W 086°35'5 5.7
2014-Dec-12 20:34N 30°27' W 086°29'4 4.2
2014-Dec-12 19:32N 30°31' W 086°30'0 0.0
2014-Dec-12 18:34N 30°31' W 086°30'0 0.0
2014-Dec-12 15:22N 30°31' W 086°30'0 0.1
2014-Dec-12 14:34N 30°31' W 086°30'0 0.0
2014-Dec-12 13:34N 30°31' W 086°30'0 0.0
2014-Dec-12 12:33N 30°31' W 086°30'0 0.0
2014-Dec-12 11:34N 30°31' W 086°30'0 0.1
2014-Dec-12 10:34N 30°31' W 086°30'2 2.0
2014-Dec-12 09:34N 30°29' W 086°29'11 5.5
2014-Dec-12 07:29N 30°24' W 086°41'6 6.8
2014-Dec-12 06:33N 30°24' W 086°48'7 6.8
2014-Dec-12 05:33N 30°23' W 086°56'1 0.1
2014-Dec-11 23:23N 30°23' W 086°57'6 7.6
2014-Dec-11 22:33N 30°24' W 086°50'15 7.4
2014-Dec-11 20:31N 30°25' W 086°32'6 6.3
2014-Dec-11 19:33N 30°30' W 086°29'1 1.1
2014-Dec-11 18:34N 30°31' W 086°30'0 0.0
2014-Dec-11 17:33N 30°31' W 086°30'0 0.0
2014-Dec-11 16:33N 30°31' W 086°30'0 0.1
2014-Dec-11 15:34N 30°31' W 086°30'0 0.1
2014-Dec-11 14:33N 30°31' W 086°30'0 0.0
2014-Dec-11 13:34N 30°31' W 086°30'0 0.1
2014-Dec-11 12:34N 30°31' W 086°30'0 0.0
2014-Dec-11 11:33N 30°31' W 086°30'0 0.0
2014-Dec-11 10:29N 30°31' W 086°30'0 0.0
2014-Dec-11 09:22N 30°31' W 086°30'0 0.0
2014-Dec-11 08:15N 30°31' W 086°30'0 0.0
2014-Dec-11 07:33N 30°31' W 086°30'0 0.0
2014-Dec-11 06:33N 30°31' W 086°30'0 0.0
2014-Dec-11 05:29N 30°31' W 086°30'0 0.0
2014-Dec-11 04:33N 30°31' W 086°30'0 0.0
2014-Dec-11 03:33N 30°31' W 086°30'0 0.0
2014-Dec-11 02:33N 30°31' W 086°30'0 0.0
2014-Dec-11 01:33N 30°31' W 086°30'0 0.0
2014-Dec-11 00:33N 30°31' W 086°30'0 0.0
2014-Dec-10 23:33N 30°31' W 086°30'0 0.2
2014-Dec-10 22:33N 30°31' W 086°30'3 3.0
2014-Dec-10 21:33N 30°28' W 086°28'5 5.0
2014-Dec-10 20:29N 30°25' W 086°33'6 4.2
2014-Dec-10 19:05N 30°24' W 086°40'3 3.9
2014-Dec-10 18:20N 30°24' W 086°43'3 4.3
2014-Dec-10 17:34N 30°24' W 086°47'5 4.6
2014-Dec-10 16:26N 30°24' W 086°53'  
Track history (hours):
 
Tides and Currents Weather Stations Pressure Air Temp Water Temp Dewpoint Dewpoint Depression Visibility Wind Speed Wind Dir Waves Ship Positions

Margaret

Owner: Cooper Marine & Timberlands Corporation, Mobile, AL. More information available from US FCC via Universal Licensing System and Coast Guard Vessel Documentation Center.

Last reported at 2014-Dec-13 00:33 UTC. Time now 2014-Dec-21 12:50 UTC.
Position N 30°24' W 086°54'.
Warning: this ship's position is 8 days out of date.

Length 20 m; draft 9 m.

Type: Towing. MMSI: 367004940.

Date/timePositionNaut miles runAvg speedWind from/ knotsBaromVisibWave heightAir tempDewpointWater temp
2014-Dec-13 00:33N 30°24' W 086°54'6 5.5
2014-Dec-12 23:31N 30°24' W 086°47'11 5.5
2014-Dec-12 21:31N 30°24' W 086°35'5 5.7
2014-Dec-12 20:34N 30°27' W 086°29'4 4.2
2014-Dec-12 19:32N 30°31' W 086°30'0 0.0
2014-Dec-12 18:34N 30°31' W 086°30'0 0.0
2014-Dec-12 15:22N 30°31' W 086°30'0 0.1
2014-Dec-12 14:34N 30°31' W 086°30'0 0.0
2014-Dec-12 13:34N 30°31' W 086°30'0 0.0
2014-Dec-12 12:33N 30°31' W 086°30'0 0.0
2014-Dec-12 11:34N 30°31' W 086°30'0 0.1
2014-Dec-12 10:34N 30°31' W 086°30'2 2.0
2014-Dec-12 09:34N 30°29' W 086°29'11 5.5
2014-Dec-12 07:29N 30°24' W 086°41'6 6.8
2014-Dec-12 06:33N 30°24' W 086°48'7 6.8
2014-Dec-12 05:33N 30°23' W 086°56'1 0.1
2014-Dec-11 23:23N 30°23' W 086°57'6 7.6
2014-Dec-11 22:33N 30°24' W 086°50'15 7.4
2014-Dec-11 20:31N 30°25' W 086°32'6 6.3
2014-Dec-11 19:33N 30°30' W 086°29'1 1.1
2014-Dec-11 18:34N 30°31' W 086°30'0 0.0
2014-Dec-11 17:33N 30°31' W 086°30'0 0.0
2014-Dec-11 16:33N 30°31' W 086°30'0 0.1
2014-Dec-11 15:34N 30°31' W 086°30'0 0.1
2014-Dec-11 14:33N 30°31' W 086°30'0 0.0
2014-Dec-11 13:34N 30°31' W 086°30'0 0.1
2014-Dec-11 12:34N 30°31' W 086°30'0 0.0
2014-Dec-11 11:33N 30°31' W 086°30'0 0.0
2014-Dec-11 10:29N 30°31' W 086°30'0 0.0
2014-Dec-11 09:22N 30°31' W 086°30'0 0.0
2014-Dec-11 08:15N 30°31' W 086°30'0 0.0
2014-Dec-11 07:33N 30°31' W 086°30'0 0.0
2014-Dec-11 06:33N 30°31' W 086°30'0 0.0
2014-Dec-11 05:29N 30°31' W 086°30'0 0.0
2014-Dec-11 04:33N 30°31' W 086°30'0 0.0
2014-Dec-11 03:33N 30°31' W 086°30'0 0.0
2014-Dec-11 02:33N 30°31' W 086°30'0 0.0
2014-Dec-11 01:33N 30°31' W 086°30'0 0.0
2014-Dec-11 00:33N 30°31' W 086°30'0 0.0
2014-Dec-10 23:33N 30°31' W 086°30'0 0.2
2014-Dec-10 22:33N 30°31' W 086°30'3 3.0
2014-Dec-10 21:33N 30°28' W 086°28'5 5.0
2014-Dec-10 20:29N 30°25' W 086°33'6 4.2
2014-Dec-10 19:05N 30°24' W 086°40'3 3.9
2014-Dec-10 18:20N 30°24' W 086°43'3 4.3
2014-Dec-10 17:34N 30°24' W 086°47'5 4.6
2014-Dec-10 16:26N 30°24' W 086°53'  

Dump ship's entire track history